Time;durP1;ratioP1;P1;durP2;ratioP2;P2;SDS_P1;SDS_P2;PMS_P1;PMS_P2;Temp;Humidity;BMP_temperature;BMP_pressure;BME280_temperature;BME280_humidity;BME280_pressure;Samples;Min_cycle;Max_cycle;Signal;HPM_P1;HPM_P2
2022/05/12 00:02:04;;;;;;;4.65;1.50;;;18.40;99.90;;;17.73;100.00;97326.72;4978240;28;20467;-71
2022/05/12 00:04:33;;;;;;;2.50;1.17;;;18.40;99.90;;;17.81;100.00;97332.25;4975976;28;20448;-71
2022/05/12 00:07:00;;;;;;;7.00;1.73;;;18.40;99.90;;;17.77;100.00;97325.56;4982899;28;20583;-71
2022/05/12 00:09:28;;;;;;;5.00;1.90;;;18.30;99.90;;;17.69;100.00;97320.88;4978026;28;20090;-71
2022/05/12 00:11:55;;;;;;;3.85;1.48;;;18.30;99.90;;;17.66;100.00;97325.53;4983123;28;20086;-71
2022/05/12 00:14:23;;;;;;;5.00;1.55;;;18.30;99.90;;;17.58;100.00;97333.13;4976714;28;20090;-71
2022/05/12 00:16:51;;;;;;;8.10;2.13;;;18.20;99.90;;;17.58;100.00;97328.72;4978067;28;20076;-71
2022/05/12 00:19:18;;;;;;;2.78;1.35;;;18.20;99.90;;;17.67;100.00;97335.88;4980892;28;20064;-71
2022/05/12 00:21:45;;;;;;;4.57;1.63;;;18.10;99.90;;;17.45;100.00;97336.69;4977474;28;20113;-70
2022/05/12 00:24:16;;;;;;;4.13;1.30;;;18.10;99.90;;;17.42;100.00;97336.06;4975360;28;20074;-71
2022/05/12 00:26:43;;;;;;;2.60;1.30;;;18.00;99.90;;;17.44;100.00;97342.03;4976305;28;20055;-71
2022/05/12 00:29:10;;;;;;;5.25;1.63;;;18.00;99.90;;;17.53;100.00;97343.97;4974057;28;20477;-71
2022/05/12 00:31:44;;;;;;;4.07;1.60;;;18.00;99.90;;;17.39;100.00;97345.00;4977775;28;20137;-71
2022/05/12 00:34:15;;;;;;;5.85;1.50;;;17.90;99.90;;;17.34;100.00;97344.50;4980787;28;20520;-71
2022/05/12 00:36:43;;;;;;;4.65;1.50;;;17.90;99.90;;;17.25;100.00;97346.00;4978972;28;20149;-71
2022/05/12 00:39:10;;;;;;;3.80;1.80;;;17.90;99.90;;;17.26;100.00;97358.16;4978678;28;20133;-71
2022/05/12 00:41:39;;;;;;;5.05;1.40;;;17.80;99.90;;;17.23;100.00;97357.56;4977944;28;20141;-71
2022/05/12 00:44:11;;;;;;;3.72;1.60;;;17.80;99.90;;;17.13;100.00;97362.66;4976400;28;20129;-71
2022/05/12 00:46:41;;;;;;;4.80;1.27;;;17.80;99.90;;;17.25;100.00;97364.38;4979219;28;20056;-71
2022/05/12 00:49:31;;;;;;;2.85;1.42;;;17.80;99.90;;;17.18;100.00;97371.03;4985950;28;20050;-71
2022/05/12 00:52:12;;;;;;;7.43;1.77;;;17.80;99.90;;;17.14;100.00;97378.25;4977750;28;20126;-71
2022/05/12 00:54:57;;;;;;;3.55;1.25;;;17.70;99.90;;;17.15;100.00;97386.97;4978074;28;20084;-71
2022/05/12 00:57:37;;;;;;;3.28;1.10;;;17.70;99.90;;;17.06;100.00;97398.97;4976780;28;20086;-71
2022/05/12 01:00:09;;;;;;;5.72;1.40;;;17.70;99.90;;;17.00;100.00;97401.19;4976670;28;20088;-71
2022/05/12 01:02:36;;;;;;;8.20;1.30;;;17.70;99.90;;;16.99;100.00;97404.75;4973409;28;20138;-70
2022/05/12 01:05:05;;;;;;;6.82;1.50;;;17.60;99.90;;;17.01;100.00;97406.31;4986298;28;20318;-71
2022/05/12 01:07:33;;;;;;;3.80;1.13;;;17.70;99.90;;;17.06;100.00;97417.34;4979507;28;20054;-71
2022/05/12 01:10:02;;;;;;;5.05;1.23;;;17.70;99.90;;;16.94;100.00;97407.69;4978438;28;20646;-71
2022/05/12 01:12:30;;;;;;;6.32;1.25;;;17.60;99.90;;;16.92;100.00;97418.31;4976993;28;20089;-71
2022/05/12 01:14:57;;;;;;;5.30;1.40;;;17.60;99.90;;;16.91;100.00;97413.16;4994877;28;20081;-71
2022/05/12 01:17:24;;;;;;;3.35;1.13;;;17.50;99.90;;;16.93;100.00;97412.09;4984249;28;20057;-71
2022/05/12 01:19:52;;;;;;;4.45;1.27;;;17.50;99.90;;;16.79;100.00;97414.88;4983227;28;20133;-71
2022/05/12 01:22:35;;;;;;;3.53;1.08;;;17.50;99.90;;;16.87;100.00;97415.16;4996389;28;20046;-71
2022/05/12 01:25:17;;;;;;;3.08;1.00;;;17.50;99.90;;;16.69;100.00;97412.03;4982809;28;20078;-70
2022/05/12 01:27:44;;;;;;;3.55;0.95;;;17.40;99.90;;;16.73;100.00;97421.34;4984067;28;20101;-70
2022/05/12 01:30:16;;;;;;;5.00;1.20;;;17.40;99.90;;;16.61;100.00;97414.34;4980600;28;20562;-71
2022/05/12 01:32:46;;;;;;;3.42;1.08;;;17.30;99.90;;;16.50;100.00;97420.31;4982373;28;20435;-70
2022/05/12 01:35:19;;;;;;;4.40;1.10;;;17.20;99.90;;;16.56;100.00;97434.81;4980035;28;20064;-70
2022/05/12 01:37:47;;;;;;;4.72;1.20;;;17.20;99.90;;;16.52;100.00;97434.16;4983846;28;20121;-71
2022/05/12 01:40:21;;;;;;;2.10;0.90;;;17.20;99.90;;;16.47;100.00;97431.03;4978624;28;20418;-71
2022/05/12 01:42:48;;;;;;;3.58;1.10;;;17.10;99.90;;;16.43;100.00;97436.59;4976516;28;20914;-71
2022/05/12 01:45:17;;;;;;;6.68;1.10;;;17.10;99.90;;;16.44;100.00;97439.06;4989696;28;20567;-71
2022/05/12 01:47:45;;;;;;;5.75;1.23;;;17.10;99.90;;;16.44;100.00;97441.69;4982146;28;20124;-70
2022/05/12 01:50:14;;;;;;;5.03;1.30;;;17.10;99.90;;;16.31;100.00;97446.13;4978314;28;20086;-71
2022/05/12 01:52:44;;;;;;;5.10;1.10;;;17.00;99.90;;;16.18;100.00;97435.63;4972351;28;20054;-71
2022/05/12 01:55:14;;;;;;;2.78;0.90;;;16.90;99.90;;;16.25;100.00;97443.91;4986865;28;20167;-71
2022/05/12 01:57:43;;;;;;;9.85;1.55;;;16.90;99.90;;;16.06;100.00;97453.00;4978527;28;20129;-71
2022/05/12 02:00:18;;;;;;;8.50;1.50;;;16.80;99.90;;;15.98;100.00;97457.91;4981959;28;20150;-71
2022/05/12 02:02:45;;;;;;;6.38;1.20;;;16.80;99.90;;;16.01;100.00;97462.94;4980927;28;20474;-71
2022/05/12 02:05:13;;;;;;;3.13;1.33;;;16.70;99.90;;;15.99;100.00;97466.63;4972493;28;20062;-71
2022/05/12 02:07:45;;;;;;;3.85;1.10;;;16.70;99.90;;;16.01;100.00;97470.81;4984574;28;20050;-71
2022/05/12 02:10:21;;;;;;;4.88;1.25;;;16.60;99.90;;;16.00;100.00;97463.88;4983097;28;20130;-71
2022/05/12 02:12:49;;;;;;;3.00;1.08;;;16.60;99.90;;;15.93;100.00;97472.25;4982873;28;20130;-71
2022/05/12 02:15:16;;;;;;;4.28;1.25;;;16.50;99.90;;;15.76;100.00;97476.81;4977752;28;20098;-70
2022/05/12 02:17:43;;;;;;;3.55;1.40;;;16.50;99.90;;;15.74;100.00;97489.16;4971769;28;20086;-71
2022/05/12 02:20:13;;;;;;;4.72;1.10;;;16.40;99.90;;;15.69;100.00;97488.56;4983287;28;20113;-71
2022/05/12 02:22:41;;;;;;;5.63;1.52;;;16.40;99.90;;;15.64;100.00;97488.03;4977101;28;20109;-70
2022/05/12 02:25:09;;;;;;;4.45;1.15;;;16.30;99.90;;;15.53;100.00;97499.19;4978158;28;20085;-70
2022/05/12 02:27:42;;;;;;;2.65;1.10;;;16.20;99.90;;;15.41;100.00;97499.97;4973264;28;20056;-71
2022/05/12 02:30:15;;;;;;;2.92;1.00;;;16.20;99.90;;;15.41;100.00;97506.03;4980934;28;20055;-71
2022/05/12 02:32:43;;;;;;;4.53;1.40;;;16.10;99.90;;;15.32;100.00;97503.16;4976345;28;20086;-71
2022/05/12 02:35:10;;;;;;;4.30;1.35;;;16.10;99.90;;;15.42;100.00;97499.03;4980040;28;20568;-71
2022/05/12 02:37:39;;;;;;;4.38;1.17;;;16.00;99.90;;;15.20;100.00;97505.59;4979454;28;20054;-71
2022/05/12 02:40:10;;;;;;;3.58;1.20;;;16.00;99.90;;;15.30;100.00;97510.25;4979376;28;20665;-70
2022/05/12 02:42:37;;;;;;;4.85;1.30;;;16.00;99.90;;;15.10;100.00;97514.09;4978763;28;20516;-71
2022/05/12 02:45:06;;;;;;;2.88;1.10;;;15.90;99.90;;;15.16;100.00;97513.75;4984554;28;20047;-71
2022/05/12 02:47:34;;;;;;;8.90;1.48;;;15.90;99.90;;;15.22;100.00;97514.19;4980826;28;20081;-71
2022/05/12 02:50:01;;;;;;;3.08;1.10;;;15.90;99.90;;;15.21;100.00;97509.06;4980323;28;20056;-71
2022/05/12 02:52:28;;;;;;;4.97;1.50;;;15.80;99.90;;;15.00;100.00;97517.28;4982454;28;20089;-71
2022/05/12 02:54:56;;;;;;;3.33;1.50;;;15.80;99.90;;;15.06;100.00;97522.16;4980842;28;20137;-71
2022/05/12 02:57:23;;;;;;;2.80;1.20;;;15.70;99.90;;;14.94;100.00;97520.31;4979529;28;20133;-71
2022/05/12 02:59:50;;;;;;;3.95;1.25;;;15.60;99.90;;;15.04;100.00;97525.78;4981716;28;20070;-71
2022/05/12 03:02:20;;;;;;;3.40;1.10;;;15.60;99.90;;;14.97;100.00;97530.56;4981973;28;20566;-71
2022/05/12 03:04:47;;;;;;;6.13;1.58;;;15.60;99.90;;;14.75;100.00;97533.63;4980130;28;20057;-71
2022/05/12 03:07:15;;;;;;;3.45;1.23;;;15.50;99.90;;;14.82;100.00;97542.78;4982453;28;20057;-71
2022/05/12 03:09:41;;;;;;;2.38;1.13;;;15.50;99.90;;;14.85;100.00;97544.38;4979777;28;20473;-70
2022/05/12 03:12:09;;;;;;;3.95;1.50;;;15.50;99.90;;;14.69;100.00;97541.84;4974764;28;20082;-71
2022/05/12 03:14:36;;;;;;;5.55;1.40;;;15.50;99.90;;;14.63;100.00;97550.03;4976835;28;20093;-70
2022/05/12 03:17:03;;;;;;;4.47;2.20;;;15.40;99.90;;;14.53;100.00;97559.31;4981348;28;20134;-71
2022/05/12 03:19:31;;;;;;;3.75;1.65;;;15.40;99.90;;;14.54;100.00;97555.78;4984347;28;20120;-71
2022/05/12 03:21:59;;;;;;;5.82;1.83;;;15.40;99.90;;;14.72;100.00;97561.72;4976195;28;20073;-70
2022/05/12 03:24:26;;;;;;;3.42;1.45;;;15.40;99.90;;;14.75;100.00;97564.13;4977008;28;20140;-70
2022/05/12 03:26:53;;;;;;;4.15;1.30;;;15.40;99.90;;;14.82;100.00;97568.06;4976376;28;20064;-71
2022/05/12 03:29:20;;;;;;;5.15;1.48;;;15.50;99.90;;;14.80;100.00;97568.19;4979661;28;20090;-71
2022/05/12 03:31:47;;;;;;;6.03;2.03;;;15.50;99.90;;;14.89;100.00;97576.38;4977500;28;20092;-71
2022/05/12 03:34:14;;;;;;;3.15;1.55;;;15.50;99.90;;;14.72;100.00;97580.84;4981100;28;20078;-71
2022/05/12 03:36:43;;;;;;;4.03;1.40;;;15.50;99.90;;;14.90;100.00;97578.91;4980654;28;20113;-70
2022/05/12 03:39:10;;;;;;;3.10;1.30;;;15.50;99.90;;;14.92;100.00;97590.13;4979376;28;20069;-71
2022/05/12 03:41:38;;;;;;;3.42;1.55;;;15.50;99.90;;;15.02;100.00;97591.22;4978754;28;20054;-70
2022/05/12 03:46:51;;;;;;;4.57;1.23;;;15.60;99.90;;;14.82;100.00;97595.06;4982317;28;20146;-71
2022/05/12 03:49:18;;;;;;;2.63;1.30;;;15.60;99.90;;;14.94;100.00;97598.72;4971224;28;20405;-70
2022/05/12 03:51:45;;;;;;;4.93;1.65;;;15.70;99.90;;;15.07;100.00;97604.03;4970943;28;20158;-71
2022/05/12 03:54:13;;;;;;;3.30;1.48;;;15.70;99.90;;;15.00;100.00;97608.78;4982880;28;20503;-70
2022/05/12 03:56:40;;;;;;;5.50;1.30;;;15.70;99.90;;;15.02;100.00;97614.75;4979711;28;20085;-70
2022/05/12 03:59:07;;;;;;;5.07;1.60;;;15.70;99.90;;;14.97;100.00;97615.97;4979513;28;20073;-70
2022/05/12 04:01:35;;;;;;;2.80;1.45;;;15.70;99.90;;;14.99;100.00;97621.97;4974685;28;20078;-70
2022/05/12 04:04:02;;;;;;;5.07;1.38;;;15.70;99.90;;;15.01;100.00;97630.56;4969606;28;20444;-70
2022/05/12 04:06:30;;;;;;;4.32;1.20;;;15.80;99.90;;;15.14;100.00;97625.41;4980233;28;20062;-70
2022/05/12 04:08:57;;;;;;;3.15;1.40;;;15.70;99.90;;;14.73;100.00;97634.75;4977291;28;20503;-70
2022/05/12 04:11:24;;;;;;;3.60;1.30;;;15.70;99.90;;;14.78;100.00;97642.34;4975546;28;20082;-70
2022/05/12 04:13:51;;;;;;;3.78;1.42;;;15.70;99.90;;;15.04;100.00;97630.34;4974087;28;20694;-71
2022/05/12 04:16:19;;;;;;;6.55;1.40;;;15.70;99.90;;;15.14;100.00;97631.47;4976761;28;20086;-70
2022/05/12 04:18:46;;;;;;;3.85;1.55;;;15.80;99.90;;;14.92;100.00;97638.94;4977530;28;20062;-71
2022/05/12 04:21:15;;;;;;;2.83;1.13;;;15.80;99.90;;;14.98;100.00;97647.22;4978135;28;20073;-71
2022/05/12 04:23:44;;;;;;;3.88;1.20;;;15.70;99.90;;;14.91;100.00;97647.69;4981704;28;20125;-71
2022/05/12 04:26:11;;;;;;;3.60;1.27;;;15.60;99.90;;;14.85;100.00;97654.97;4973236;28;20058;-71
2022/05/12 04:28:38;;;;;;;2.42;1.00;;;15.70;99.90;;;14.82;100.00;97659.53;4973582;28;20517;-71
2022/05/12 04:31:05;;;;;;;3.00;1.15;;;15.60;99.90;;;14.90;100.00;97649.47;4976812;28;20077;-71
2022/05/12 04:36:18;;;;;;;4.18;1.10;;;15.60;99.90;;;14.80;100.00;97661.38;4968053;28;20086;-71
2022/05/12 04:38:45;;;;;;;4.63;1.40;;;15.60;99.90;;;14.77;100.00;97664.19;4973307;28;20469;-71
2022/05/12 04:41:13;;;;;;;6.28;1.25;;;15.70;99.90;;;14.74;100.00;97667.00;4975920;28;20478;-71
2022/05/12 04:43:40;;;;;;;3.83;1.50;;;15.70;99.90;;;14.73;100.00;97671.34;4977332;28;20062;-71
2022/05/12 04:46:07;;;;;;;2.20;1.10;;;15.70;99.90;;;14.89;100.00;97667.84;4973266;28;20090;-71
2022/05/12 04:48:36;;;;;;;2.92;1.30;;;15.60;99.90;;;14.90;100.00;97680.84;4978066;28;20051;-71
2022/05/12 04:51:03;;;;;;;1.88;1.08;;;15.60;99.90;;;14.81;100.00;97686.59;4979237;28;20488;-71
2022/05/12 04:53:30;;;;;;;3.22;1.33;;;15.60;99.90;;;14.87;100.00;97693.22;4982097;28;20186;-70
2022/05/12 04:55:57;;;;;;;3.85;1.30;;;15.60;99.90;;;14.96;100.00;97688.31;4981139;28;20702;-71
2022/05/12 04:58:26;;;;;;;4.00;1.20;;;15.60;99.90;;;14.79;100.00;97694.50;4980440;28;20915;-71
2022/05/12 05:00:53;;;;;;;6.80;1.45;;;15.70;99.90;;;14.97;100.00;97690.00;4988361;28;20050;-71
2022/05/12 05:03:20;;;;;;;5.63;1.50;;;15.70;99.90;;;14.96;100.00;97696.16;4979684;28;20046;-71
2022/05/12 05:05:49;;;;;;;4.35;1.40;;;15.80;99.90;;;15.26;100.00;97696.13;4979280;28;20140;-71
2022/05/12 05:08:21;;;;;;;2.30;1.05;;;15.80;99.90;;;15.35;100.00;97689.50;4979161;28;20531;-70
2022/05/12 05:10:49;;;;;;;5.83;1.47;;;15.90;99.90;;;15.09;100.00;97700.66;4980307;28;20432;-70
2022/05/12 05:13:20;;;;;;;6.30;1.30;;;15.90;99.90;;;15.30;100.00;97707.22;4981594;28;20477;-70
2022/05/12 05:15:49;;;;;;;4.13;1.30;;;16.00;99.90;;;15.02;100.00;97715.88;4983015;28;20078;-71
2022/05/12 05:18:19;;;;;;;4.28;1.50;;;16.00;99.90;;;15.26;100.00;97722.28;4985140;28;20105;-70
2022/05/12 05:20:47;;;;;;;5.30;1.20;;;16.00;99.90;;;15.30;100.00;97722.06;4983727;28;20110;-71
2022/05/12 05:23:21;;;;;;;4.45;1.25;;;16.00;99.90;;;15.25;100.00;97728.41;4980084;28;20413;-71
2022/05/12 05:25:50;;;;;;;2.85;1.20;;;16.10;99.90;;;14.97;100.00;97737.03;4978029;28;20497;-70
2022/05/12 05:28:18;;;;;;;3.15;1.40;;;16.10;99.90;;;15.33;100.00;97735.84;4981921;28;20121;-71
2022/05/12 05:30:45;;;;;;;3.13;1.20;;;16.10;99.90;;;15.39;100.00;97738.06;4981129;28;20338;-71
2022/05/12 05:33:13;;;;;;;5.15;1.27;;;16.20;99.90;;;15.63;100.00;97735.75;4982007;28;20090;-71
2022/05/12 05:35:40;;;;;;;5.18;1.35;;;16.30;99.90;;;15.56;100.00;97747.53;4984287;28;20133;-71
2022/05/12 05:38:08;;;;;;;5.78;1.40;;;16.40;99.90;;;15.44;100.00;97743.00;5015827;28;20418;-71
2022/05/12 05:40:36;;;;;;;2.92;1.13;;;16.40;99.90;;;15.35;100.00;97751.41;4978453;28;20089;-71
2022/05/12 05:43:04;;;;;;;5.55;1.20;;;16.30;99.90;;;15.34;100.00;97755.81;4974504;28;20085;-71
2022/05/12 05:45:31;;;;;;;7.47;1.52;;;16.40;99.90;;;15.30;100.00;97759.53;4980489;28;20519;-71
2022/05/12 05:48:04;;;;;;;3.17;1.00;;;16.40;99.90;;;15.56;100.00;97749.31;4981907;28;20058;-71
2022/05/12 05:53:23;;;;;;;8.52;1.48;;;16.40;99.90;;;15.22;100.00;97764.38;4977912;28;20085;-71
2022/05/12 05:53:26;;;;;;;4.45;1.27;;;16.40;99.90;;;15.25;100.00;97765.03;4972639;28;20061;-71
2022/05/12 05:55:59;;;;;;;6.68;1.45;;;16.40;99.90;;;15.77;100.00;97753.28;4985791;28;20066;-71
2022/05/12 05:58:28;;;;;;;4.18;1.00;;;16.50;99.90;;;15.52;100.00;97768.75;4980264;28;20133;-71
2022/05/12 06:00:55;;;;;;;8.10;2.00;;;16.40;99.90;;;15.24;100.00;97771.19;4978690;28;20547;-71
2022/05/12 06:03:26;;;;;;;4.72;1.20;;;16.40;99.90;;;15.48;100.00;97773.28;4978426;28;20054;-71
2022/05/12 06:05:54;;;;;;;5.63;1.30;;;16.40;99.90;;;15.44;100.00;97780.50;4979510;28;20081;-71
2022/05/12 06:08:21;;;;;;;5.88;1.45;;;16.40;99.90;;;15.52;100.00;97781.81;4976718;28;20059;-70
2022/05/12 06:10:58;;;;;;;5.72;1.42;;;16.50;99.90;;;15.35;100.00;97780.19;4978099;28;20153;-71
2022/05/12 06:13:25;;;;;;;4.45;1.45;;;16.40;99.90;;;15.48;100.00;97781.16;4981750;28;20369;-71
2022/05/12 06:15:52;;;;;;;5.30;1.05;;;16.40;99.90;;;15.19;100.00;97785.47;4981862;28;20046;-71
2022/05/12 06:18:19;;;;;;;7.32;1.20;;;16.40;99.90;;;15.29;100.00;97793.63;4981153;28;20097;-71
2022/05/12 06:20:49;;;;;;;6.15;1.40;;;16.40;99.90;;;15.43;100.00;97796.28;4980140;28;20126;-71
2022/05/12 06:23:16;;;;;;;3.13;0.90;;;16.50;99.90;;;15.22;100.00;97801.00;4978871;28;20096;-71
2022/05/12 06:25:44;;;;;;;7.10;1.45;;;16.50;99.90;;;15.22;100.00;97806.22;4978710;28;20465;-71
2022/05/12 06:28:12;;;;;;;7.18;1.10;;;16.40;99.90;;;15.38;100.00;97806.19;4983175;28;20137;-71
2022/05/12 06:30:40;;;;;;;5.72;1.13;;;16.50;99.90;;;15.27;100.00;97812.03;4978576;28;20704;-71
2022/05/12 06:33:15;;;;;;;9.10;1.20;;;16.50;99.90;;;15.35;100.00;97801.97;4980215;28;20117;-71
2022/05/12 06:35:43;;;;;;;7.28;1.67;;;16.50;99.90;;;15.44;100.00;97814.50;4982893;28;20086;-71
2022/05/12 06:38:11;;;;;;;7.85;1.35;;;16.50;99.90;;;15.49;100.00;97803.78;4981584;28;20051;-70
2022/05/12 06:40:39;;;;;;;4.25;1.20;;;16.60;99.90;;;15.41;100.00;97801.59;4982478;28;20098;-71
2022/05/12 06:43:08;;;;;;;4.57;1.20;;;16.70;99.90;;;15.71;100.00;97807.75;4986449;28;20489;-71
2022/05/12 06:45:36;;;;;;;8.45;1.70;;;16.60;99.90;;;15.65;100.00;97811.56;4985674;28;20051;-71
2022/05/12 06:48:04;;;;;;;4.07;1.10;;;16.70;99.90;;;16.00;100.00;97806.00;4984042;28;20050;-71
2022/05/12 06:50:32;;;;;;;4.38;1.20;;;16.80;99.90;;;16.04;100.00;97804.88;4985113;28;20149;-71
2022/05/12 06:52:59;;;;;;;8.35;1.30;;;16.90;99.90;;;15.92;100.00;97805.63;4976201;28;20382;-71
2022/05/12 06:55:27;;;;;;;6.32;1.73;;;17.00;99.90;;;16.40;100.00;97804.41;4979866;28;20049;-71
2022/05/12 06:57:55;;;;;;;4.38;1.35;;;17.20;99.90;;;15.72;100.00;97810.28;4980418;28;20054;-72
2022/05/12 07:00:22;;;;;;;5.63;1.90;;;17.30;99.90;;;15.96;100.00;97809.72;4976138;28;20074;-71
2022/05/12 07:02:50;;;;;;;6.57;1.50;;;17.30;99.90;;;16.35;100.00;97809.06;4977525;28;20058;-71
2022/05/12 07:05:22;;;;;;;7.18;1.67;;;17.30;99.90;;;16.19;100.00;97808.31;4980074;28;20054;-71
2022/05/12 07:07:50;;;;;;;5.10;1.50;;;17.50;99.90;;;15.56;100.00;97817.34;4975889;28;20090;-71
2022/05/12 07:10:20;;;;;;;7.13;1.60;;;17.50;99.90;;;15.66;100.00;97816.69;4978955;28;20377;-71
2022/05/12 07:12:47;;;;;;;5.63;1.75;;;17.30;99.90;;;16.02;100.00;97802.34;4982644;28;20493;-71
2022/05/12 07:15:15;;;;;;;7.50;1.90;;;17.30;99.90;;;15.79;100.00;97816.00;4979914;28;20149;-71
2022/05/12 07:17:43;;;;;;;5.78;1.73;;;17.40;99.90;;;15.81;100.00;97817.59;4982816;28;20429;-71
2022/05/12 07:28:36;;;;;;;5.25;1.30;;;17.30;99.90;;;15.83;100.00;97827.97;4977201;28;20110;-71
2022/05/12 07:31:09;;;;;;;7.55;1.33;;;17.50;99.90;;;16.30;100.00;97813.75;4976086;28;20054;-71
2022/05/12 07:33:42;;;;;;;10.90;1.33;;;17.60;99.90;;;16.39;100.00;97809.72;4980275;28;20058;-71
2022/05/12 07:36:15;;;;;;;;;;;17.80;99.90;;;16.20;100.00;97818.72;4977805;28;20094;-71
2022/05/12 07:38:43;;;;;;;5.30;1.60;;;17.80;99.90;;;16.13;100.00;97829.69;4976599;28;19985;-71
2022/05/12 07:41:12;;;;;;;6.20;1.27;;;18.00;99.90;;;16.47;100.00;97813.53;4977267;28;20047;-71
2022/05/12 07:43:41;;;;;;;13.02;1.40;;;18.00;99.90;;;16.37;100.00;97833.38;4980591;28;20093;-71
2022/05/12 07:46:11;;;;;;;6.15;1.40;;;17.90;99.90;;;16.28;100.00;97834.81;4981099;28;20092;-71
2022/05/12 07:48:39;;;;;;;7.35;1.30;;;18.00;99.90;;;17.26;100.00;97827.72;4981855;28;20460;-71
2022/05/12 07:51:06;;;;;;;9.85;1.25;;;18.20;99.90;;;16.72;100.00;97849.53;4975042;28;20145;-72
2022/05/12 07:53:34;;;;;;;9.32;1.50;;;18.30;99.90;;;16.55;100.00;97849.72;4977032;28;20086;-71
2022/05/12 07:56:02;;;;;;;6.38;1.10;;;18.30;99.90;;;16.67;100.00;97859.47;4984911;28;20190;-71
2022/05/12 07:58:29;;;;;;;4.30;1.05;;;18.40;99.90;;;16.78;100.00;97848.28;4977779;28;20082;-71
2022/05/12 08:00:57;;;;;;;6.32;1.27;;;18.30;99.90;;;16.88;100.00;97848.59;4980875;28;20085;-71
2022/05/12 08:03:25;;;;;;;8.40;1.35;;;18.40;99.90;;;16.63;100.00;97859.75;4979435;28;20101;-71
2022/05/12 08:05:54;;;;;;;7.22;1.27;;;18.30;99.90;;;16.70;100.00;97845.31;4977792;28;20060;-72
2022/05/12 08:08:21;;;;;;;3.70;1.20;;;18.30;99.90;;;16.57;100.00;97854.91;4981958;28;20066;-71
2022/05/12 08:10:48;;;;;;;7.00;1.50;;;18.30;99.90;;;17.30;100.00;97860.69;4975637;28;20080;-72
2022/05/12 08:13:16;;;;;;;6.78;1.60;;;18.60;99.90;;;17.18;100.00;97850.19;4980968;28;20149;-71
2022/05/12 08:15:49;;;;;;;6.72;1.30;;;18.80;99.90;;;17.16;100.00;97875.66;4979033;28;20050;-72
2022/05/12 08:18:19;;;;;;;4.03;1.23;;;18.90;99.90;;;17.49;100.00;97862.97;4979884;28;20213;-72
2022/05/12 08:20:46;;;;;;;7.05;1.38;;;18.90;99.90;;;17.01;100.00;97870.44;4976125;28;20080;-72
2022/05/12 08:23:13;;;;;;;9.13;1.20;;;19.00;99.90;;;16.84;100.00;97873.31;4978713;28;20054;-72
2022/05/12 08:25:43;;;;;;;11.52;1.48;;;19.00;99.90;;;17.13;100.00;97879.34;4983911;28;20121;-72
2022/05/12 08:28:15;;;;;;;6.43;1.30;;;19.10;99.90;;;17.08;100.00;97889.25;4969195;28;20061;-71
2022/05/12 08:30:44;;;;;;;6.25;1.58;;;19.10;99.90;;;17.46;100.00;97880.69;4981276;28;20164;-71
2022/05/12 08:33:12;;;;;;;5.18;1.20;;;19.00;99.90;;;17.63;100.00;97866.44;4978263;28;20082;-71
2022/05/12 08:35:42;;;;;;;6.63;1.17;;;19.10;99.90;;;17.75;100.00;97865.63;4973543;28;20090;-72
2022/05/12 08:38:11;;;;;;;6.45;1.38;;;19.20;99.90;;;17.96;100.00;97869.47;4982228;28;20488;-72
2022/05/12 08:41:03;;;;;;;8.88;1.38;;;19.50;99.90;;;17.45;100.00;97876.41;4980672;28;20054;-72
2022/05/12 08:43:45;;;;;;;9.00;1.55;;;19.50;99.90;;;17.71;100.00;97888.63;4983981;28;20112;-71
2022/05/12 08:46:18;;;;;;;6.72;1.85;;;19.50;99.90;;;17.61;100.00;97874.44;4986916;28;20703;-71
2022/05/12 08:48:48;;;;;;;5.63;1.10;;;19.50;99.90;;;17.82;100.00;97880.06;4986390;28;20125;-71
2022/05/12 08:51:21;;;;;;;5.50;1.45;;;19.60;99.90;;;18.17;100.00;97861.06;4981132;28;20057;-71
2022/05/12 08:54:04;;;;;;;5.93;1.40;;;20.10;99.90;;;18.12;100.00;97884.19;4979585;28;20161;-71
2022/05/12 08:56:32;;;;;;;10.88;1.38;;;20.60;99.90;;;18.39;100.00;97897.22;4987882;28;20057;-72
2022/05/12 08:59:00;;;;;;;6.43;1.50;;;20.80;99.90;;;18.95;100.00;97874.00;4981395;28;20074;-71
2022/05/12 09:02:24;;;;;;;7.65;1.15;;;20.90;99.90;;;19.36;100.00;97864.00;4980253;28;20512;-71
2022/05/12 09:05:07;;;;;;;6.30;1.60;;;20.90;99.90;;;17.69;100.00;97885.25;4929675;29;20481;-71
2022/05/12 09:07:45;;;;;;;7.38;1.20;;;20.80;99.90;;;18.24;100.00;97875.44;4929271;29;20062;-70
2022/05/12 09:10:27;;;;;;;5.05;1.35;;;20.30;99.90;;;19.08;100.00;97876.56;4981791;28;20141;-70
2022/05/12 09:13:14;;;;;;;9.20;1.20;;;20.10;99.90;;;18.33;100.00;97885.31;4982653;28;20289;-70
2022/05/12 09:16:17;;;;;;;8.40;1.40;;;20.30;99.90;;;18.48;100.00;97872.91;4984230;28;20053;-70
2022/05/12 09:18:45;;;;;;;6.93;1.05;;;20.40;99.90;;;18.54;100.00;97882.13;4984544;28;20067;-70
2022/05/12 09:21:19;;;;;;;5.78;0.93;;;20.60;99.90;;;18.65;100.00;97878.78;4977159;28;20500;-71
2022/05/12 09:23:47;;;;;;;5.28;1.23;;;20.60;99.90;;;19.75;100.00;97880.47;4982026;28;20081;-70
2022/05/12 09:26:48;;;;;;;5.68;1.38;;;21.00;99.90;;;19.62;100.00;97876.09;4977858;28;20163;-71
2022/05/12 09:29:24;;;;;;;4.35;0.90;;;21.10;99.90;;;19.07;100.00;97890.69;4980300;28;20105;-71
2022/05/12 09:32:04;;;;;;;5.25;1.00;;;21.00;99.90;;;20.93;100.00;97862.56;4983951;28;20050;-72
2022/05/12 09:34:36;;;;;;;8.90;1.05;;;21.30;99.90;;;20.77;100.00;97862.97;4976338;28;20080;-70
2022/05/12 09:37:13;;;;;;;3.33;0.70;;;21.70;99.90;;;20.69;100.00;97866.22;4986954;28;20073;-68
2022/05/12 09:39:50;;;;;;;5.55;0.98;;;22.00;99.90;;;18.42;100.00;97875.13;4982294;28;20129;-69
2022/05/12 09:42:29;;;;;;;3.40;0.70;;;21.60;99.90;;;19.27;100.00;97867.31;4984421;28;20058;-69
2022/05/12 09:45:05;;;;;;;7.65;0.98;;;21.20;99.90;;;18.84;100.00;97873.06;4978912;28;20576;-70
2022/05/12 09:47:34;;;;;;;4.53;1.00;;;20.70;99.90;;;18.45;100.00;97849.47;4982588;28;20138;-70
2022/05/12 09:50:16;;;;;;;8.60;0.95;;;20.60;99.90;;;19.53;100.00;97855.72;4986660;28;20137;-69
2022/05/12 09:53:00;;;;;;;3.92;0.98;;;20.80;99.90;;;19.55;100.00;97858.25;4988904;28;20057;-69
2022/05/12 09:55:38;;;;;;;7.22;1.13;;;20.90;99.90;;;19.00;100.00;97855.25;4982787;28;20108;-68
2022/05/12 09:58:32;;;;;;;5.82;1.00;;;21.10;99.90;;;19.11;100.00;97859.72;4985104;28;20642;-69
2022/05/12 10:01:09;;;;;;;6.47;0.90;;;21.20;99.90;;;19.79;100.00;97874.00;4981179;28;20042;-68
2022/05/12 10:09:32;;;;;;;4.75;0.73;;;21.70;99.90;;;20.48;100.00;97840.56;4982117;28;20149;-69
2022/05/12 10:12:17;;;;;;;4.28;0.80;;;21.90;99.90;;;20.97;100.00;97845.53;4980985;28;20137;-69
2022/05/12 10:14:54;;;;;;;6.55;0.90;;;22.00;99.90;;;18.74;100.00;97854.44;4980339;28;20170;-70
2022/05/12 10:17:46;;;;;;;6.22;1.10;;;21.70;99.90;;;19.91;100.00;97851.16;4982036;28;20078;-70
2022/05/12 10:20:23;;;;;;;13.70;0.93;;;21.70;99.90;;;19.71;100.00;97852.69;4980904;28;20056;-70
2022/05/12 10:23:07;;;;;;;7.03;0.90;;;21.70;99.90;;;20.48;100.00;97842.31;4982347;28;20057;-68
2022/05/12 10:25:56;;;;;;;3.83;0.80;;;;;;;20.79;100.00;97848.69;4984879;28;20220;-70
2022/05/12 10:29:14;;;;;;;3.10;0.90;;;22.00;99.90;;;20.81;100.00;97844.13;4982405;28;20092;-70
2022/05/12 10:32:18;;;;;;;4.85;0.68;;;22.10;99.90;;;22.26;100.00;97819.81;4979408;28;20134;-70
2022/05/12 10:35:00;;;;;;;5.18;0.90;;;22.70;99.90;;;20.65;100.00;97843.69;4977538;28;20572;-70
2022/05/12 10:38:07;;;;;;;5.93;0.80;;;22.90;99.90;;;21.50;100.00;97845.59;4979866;28;20050;-69
2022/05/12 10:40:55;;;;;;;9.50;1.10;;;23.10;99.90;;;21.81;100.00;97837.78;4960219;28;20093;-70
2022/05/12 10:44:02;;;;;;;5.75;1.08;;;22.70;99.90;;;19.94;100.00;97825.44;4985712;28;20078;-70
2022/05/12 10:47:09;;;;;;;5.22;0.95;;;22.10;99.90;;;19.93;100.00;97839.53;4981606;28;20054;-70
2022/05/12 10:50:04;;;;;;;5.55;1.10;;;21.60;99.90;;;18.84;100.00;97852.03;4978949;28;20460;-69
2022/05/12 10:52:53;;;;;;;3.40;0.70;;;21.20;99.90;;;20.94;100.00;97832.56;4980315;28;20042;-69